createdAt,value
2022-07-25T00:02:00.599Z,76701.50
2022-07-25T00:04:28.398Z,76703.59
2022-07-25T00:06:54.964Z,76703.59
2022-07-25T00:09:21.522Z,76695.22
2022-07-25T00:11:47.993Z,76691.06
2022-07-25T00:14:14.541Z,76688.97
2022-07-25T00:16:41.095Z,76686.88
2022-07-25T00:19:07.593Z,76680.59
2022-07-25T00:21:34.098Z,76682.69
2022-07-25T00:24:00.593Z,76684.78
2022-07-25T00:26:27.078Z,76682.69
2022-07-25T00:28:53.610Z,76676.41
2022-07-25T00:31:20.162Z,76684.78
2022-07-25T00:33:46.681Z,76686.88
2022-07-25T00:36:13.483Z,76682.69
2022-07-25T00:38:39.988Z,76684.78
2022-07-25T00:41:06.566Z,76684.78
2022-07-25T00:43:33.024Z,76674.34
2022-07-25T00:46:00.536Z,76678.50
2022-07-25T00:48:28.307Z,76676.41
2022-07-25T00:50:58.786Z,76678.50
2022-07-25T00:53:25.928Z,76676.41
2022-07-25T00:55:52.622Z,76670.16
2022-07-25T00:58:19.207Z,76670.16
2022-07-25T01:00:46.435Z,76672.25
2022-07-25T01:03:13.013Z,76672.25
2022-07-25T01:05:39.721Z,76665.97
2022-07-25T01:08:06.441Z,76668.06
2022-07-25T01:10:33.228Z,76670.16
2022-07-25T01:12:59.773Z,76657.63
2022-07-25T01:15:27.063Z,76663.88
2022-07-25T01:17:53.609Z,76665.97
2022-07-25T01:20:22.284Z,76659.69
2022-07-25T01:22:49.536Z,76661.78
2022-07-25T01:25:16.585Z,76659.69
2022-07-25T01:27:43.525Z,76657.63
2022-07-25T01:30:12.150Z,76663.88
2022-07-25T01:32:38.711Z,76668.06
2022-07-25T01:35:06.809Z,76668.06
2022-07-25T01:37:33.343Z,76665.97
2022-07-25T01:39:59.945Z,76665.97
2022-07-25T01:42:26.692Z,76672.25
2022-07-25T01:44:53.274Z,76668.06
2022-07-25T01:47:20.091Z,76670.16
2022-07-25T01:49:46.630Z,76674.34
2022-07-25T01:52:13.975Z,76665.97
2022-07-25T01:54:40.726Z,76657.63
2022-07-25T01:57:09.983Z,76659.69
2022-07-25T01:59:39.262Z,76655.53
2022-07-25T02:02:06.767Z,76655.53
2022-07-25T02:04:34.812Z,76659.69
2022-07-25T02:07:01.621Z,76659.69
2022-07-25T02:09:28.870Z,76655.53
2022-07-25T02:11:55.434Z,76655.53
2022-07-25T02:14:22.780Z,76642.97
2022-07-25T02:16:49.795Z,76642.97
2022-07-25T02:19:16.342Z,76647.16
2022-07-25T02:21:43.118Z,76647.16
2022-07-25T02:24:09.989Z,76638.81
2022-07-25T02:26:36.776Z,76638.81
2022-07-25T02:29:03.661Z,76642.97
2022-07-25T02:31:30.156Z,76638.81
2022-07-25T02:33:56.717Z,76642.97
2022-07-25T02:36:23.239Z,76634.63
2022-07-25T02:38:49.769Z,76634.63
2022-07-25T02:41:16.327Z,76636.72
2022-07-25T02:43:42.793Z,76628.34
2022-07-25T02:46:09.474Z,76634.63
2022-07-25T02:48:36.045Z,76628.34
2022-07-25T02:51:02.645Z,76626.25
2022-07-25T02:53:55.464Z,76628.34
2022-07-25T02:56:15.671Z,76630.44
2022-07-25T02:58:42.969Z,76632.53
2022-07-25T03:01:09.515Z,76642.97
2022-07-25T03:03:36.222Z,76628.34
2022-07-25T03:06:02.763Z,76630.44
2022-07-25T03:08:29.250Z,76622.09
2022-07-25T03:10:55.749Z,76630.44
2022-07-25T03:13:22.234Z,76642.97
2022-07-25T03:15:48.984Z,76640.91
2022-07-25T03:18:16.204Z,76636.72
2022-07-25T03:20:42.785Z,76636.72
2022-07-25T03:23:09.263Z,76630.44
2022-07-25T03:25:35.759Z,76634.63
2022-07-25T03:28:02.281Z,76630.44
2022-07-25T03:30:28.775Z,76632.53
2022-07-25T03:32:55.253Z,76628.34
2022-07-25T03:35:21.826Z,76636.72
2022-07-25T03:37:48.307Z,76628.34
2022-07-25T03:40:16.001Z,76626.25
2022-07-25T03:42:42.809Z,76626.25
2022-07-25T03:45:09.985Z,76622.09
2022-07-25T03:47:36.510Z,76628.34
2022-07-25T03:50:03.333Z,76624.19
2022-07-25T03:52:29.888Z,76624.19
2022-07-25T03:54:56.382Z,76611.63
2022-07-25T03:57:22.914Z,76620.00
2022-07-25T03:59:49.466Z,76613.72
2022-07-25T04:02:16.097Z,76605.38
2022-07-25T04:04:42.688Z,76594.91
2022-07-25T04:07:09.173Z,76594.91
2022-07-25T04:09:36.952Z,76603.28
2022-07-25T04:12:03.749Z,76594.91
2022-07-25T04:14:30.255Z,76599.09
2022-07-25T04:16:56.807Z,76594.91
2022-07-25T04:19:23.527Z,76590.75
2022-07-25T04:21:52.716Z,76569.84
2022-07-25T04:24:19.271Z,76580.28
2022-07-25T04:26:45.798Z,76574.03
2022-07-25T04:29:12.313Z,76576.13
2022-07-25T04:31:38.928Z,76571.94
2022-07-25T04:34:05.790Z,76578.19
2022-07-25T04:36:32.616Z,76571.94
2022-07-25T04:38:59.095Z,76567.75
2022-07-25T04:41:25.616Z,76561.47
2022-07-25T04:43:52.088Z,76569.84
2022-07-25T04:46:22.198Z,76565.66
2022-07-25T04:48:48.925Z,76561.47
2022-07-25T04:51:16.610Z,76567.75
2022-07-25T04:53:43.153Z,76561.47
2022-07-25T04:56:09.784Z,76561.47
2022-07-25T04:58:36.517Z,76565.66
2022-07-25T05:01:03.136Z,76563.56
2022-07-25T05:03:29.694Z,76551.03
2022-07-25T05:05:56.289Z,76557.31
2022-07-25T05:08:22.800Z,76559.41
2022-07-25T05:10:49.355Z,76563.56
2022-07-25T05:13:16.341Z,76555.22
2022-07-25T05:15:42.899Z,76565.66
2022-07-25T05:18:09.385Z,76563.56
2022-07-25T05:20:35.924Z,76559.41
2022-07-25T05:23:02.433Z,76561.47
2022-07-25T05:25:29.338Z,76553.13
2022-07-25T05:27:58.449Z,76557.31
2022-07-25T05:30:25.270Z,76561.47
2022-07-25T05:32:51.855Z,76544.78
2022-07-25T05:35:18.354Z,76544.78
2022-07-25T05:37:44.862Z,76546.84
2022-07-25T05:40:11.389Z,76546.84
2022-07-25T05:42:37.910Z,76540.59
2022-07-25T05:45:05.093Z,76542.69
2022-07-25T05:47:31.619Z,76528.06
2022-07-25T05:49:58.165Z,76530.13
2022-07-25T05:52:24.677Z,76534.31
2022-07-25T05:54:51.347Z,76519.69
2022-07-25T05:57:17.965Z,76511.34
2022-07-25T05:59:44.466Z,76509.25
2022-07-25T06:02:11.228Z,76509.25
2022-07-25T06:04:37.835Z,76509.25
2022-07-25T06:07:04.415Z,76502.97
2022-07-25T06:09:31.988Z,76488.34
2022-07-25T06:12:01.074Z,76490.44
2022-07-25T06:14:28.652Z,76486.25
2022-07-25T06:16:55.427Z,76488.34
2022-07-25T06:19:22.092Z,76480.00
2022-07-25T06:21:48.805Z,76475.81
2022-07-25T06:24:15.551Z,76469.53
2022-07-25T06:26:42.823Z,76471.63
2022-07-25T06:29:09.368Z,76463.28
2022-07-25T06:31:36.029Z,76457.00
2022-07-25T06:34:02.896Z,76446.56
2022-07-25T06:36:32.735Z,76444.47
2022-07-25T06:38:59.975Z,76431.94
2022-07-25T06:41:26.916Z,76425.66
2022-07-25T06:43:53.436Z,76423.56
2022-07-25T06:46:20.226Z,76415.22
2022-07-25T06:48:46.904Z,76402.66
2022-07-25T06:51:13.556Z,76394.31
2022-07-25T06:53:40.051Z,76396.41
2022-07-25T06:56:06.669Z,76392.22
2022-07-25T06:58:33.163Z,76394.31
2022-07-25T07:01:01.368Z,76383.88
2022-07-25T07:03:28.351Z,76373.41
2022-07-25T07:05:55.440Z,76371.31
2022-07-25T07:08:22.042Z,76369.25
2022-07-25T07:10:48.583Z,76360.88
2022-07-25T07:13:20.737Z,76354.63
2022-07-25T07:15:50.955Z,76350.44
2022-07-25T07:18:18.581Z,76350.44
2022-07-25T07:20:45.275Z,76342.06
2022-07-25T07:23:12.139Z,76329.53
2022-07-25T07:25:43.669Z,76319.09
2022-07-25T07:28:10.588Z,76310.72
2022-07-25T07:31:13.315Z,76306.56
2022-07-25T07:33:23.831Z,76298.19
2022-07-25T07:35:50.399Z,76296.09
2022-07-25T07:38:17.972Z,76279.38
2022-07-25T07:40:44.472Z,76268.94
2022-07-25T07:43:11.116Z,76266.84
2022-07-25T07:45:37.687Z,76264.75
2022-07-25T07:48:04.427Z,76264.75
2022-07-25T07:50:31.130Z,76260.59
2022-07-25T07:52:58.578Z,76239.69
2022-07-25T07:55:43.953Z,76239.69
2022-07-25T07:58:11.829Z,76220.88
2022-07-25T08:00:41.841Z,76206.25
2022-07-25T08:03:09.084Z,76202.06
2022-07-25T08:05:41.050Z,76187.44
2022-07-25T08:08:11.014Z,76183.28
2022-07-25T08:10:40.595Z,76181.19
2022-07-25T08:13:14.381Z,76166.56
2022-07-25T08:15:41.401Z,76158.19
2022-07-25T08:18:16.999Z,76149.84
2022-07-25T08:20:47.632Z,76139.38
2022-07-25T08:23:14.465Z,76135.22
2022-07-25T08:25:41.924Z,76122.69
2022-07-25T08:28:09.038Z,76120.59
2022-07-25T08:30:36.820Z,76103.88
2022-07-25T08:33:05.538Z,76085.06
2022-07-25T08:35:33.386Z,76055.81
2022-07-25T08:38:01.291Z,76041.19
2022-07-25T08:40:29.851Z,76034.91
2022-07-25T08:42:56.986Z,76016.13
2022-07-25T08:45:23.528Z,76009.84
2022-07-25T08:47:51.673Z,76003.56
2022-07-25T08:50:20.693Z,75999.41
2022-07-25T08:52:48.611Z,75949.25
2022-07-25T08:55:20.084Z,75913.75
2022-07-25T08:57:52.025Z,75884.47
2022-07-25T09:00:21.405Z,75867.78
2022-07-25T09:03:01.472Z,75855.22
2022-07-25T09:05:30.327Z,75869.84
2022-07-25T09:07:58.802Z,75882.41
2022-07-25T09:10:27.143Z,75823.91
2022-07-25T09:12:54.913Z,75686.00
2022-07-25T09:15:33.715Z,75681.81
2022-07-25T09:18:06.044Z,75654.66
2022-07-25T09:20:44.521Z,75637.94
2022-07-25T09:23:16.228Z,75623.31
2022-07-25T09:25:43.064Z,75598.25
2022-07-25T09:28:19.379Z,75573.19
2022-07-25T09:30:57.334Z,75577.38
2022-07-25T09:33:24.775Z,75552.28
2022-07-25T09:35:52.601Z,75543.94
2022-07-25T09:38:20.407Z,75535.59
2022-07-25T09:40:56.776Z,75533.50
2022-07-25T09:43:35.467Z,75529.31
2022-07-25T09:46:02.091Z,75512.59
2022-07-25T09:48:28.664Z,75516.78
2022-07-25T09:50:55.405Z,75508.41
2022-07-25T09:53:22.027Z,75514.69
2022-07-25T09:55:48.586Z,75514.69
2022-07-25T09:58:15.322Z,75506.34
2022-07-25T10:00:42.899Z,75508.41
2022-07-25T10:03:15.221Z,75506.34
2022-07-25T10:05:56.745Z,75504.25
2022-07-25T10:08:24.386Z,75497.97
2022-07-25T10:10:52.163Z,75506.34
2022-07-25T10:13:30.884Z,75508.41
2022-07-25T10:15:57.810Z,75546.03
2022-07-25T10:18:28.078Z,75546.03
2022-07-25T10:20:57.168Z,75550.22
2022-07-25T10:23:25.909Z,75566.91
2022-07-25T10:26:10.903Z,75564.84
2022-07-25T10:28:43.986Z,75562.75
2022-07-25T10:31:22.617Z,75577.38
2022-07-25T10:33:55.252Z,75573.19
2022-07-25T10:36:23.485Z,75571.09
2022-07-25T10:38:57.391Z,75577.38
2022-07-25T10:41:26.150Z,75579.44
2022-07-25T10:43:56.658Z,75583.63
2022-07-25T10:46:27.321Z,75581.53
2022-07-25T10:48:58.778Z,75573.19
2022-07-25T10:51:30.404Z,75569.00
2022-07-25T10:53:57.343Z,75569.00
2022-07-25T10:56:26.340Z,75558.56
2022-07-25T10:58:54.217Z,75520.97
2022-07-25T11:01:34.593Z,75516.78
2022-07-25T11:04:04.697Z,75504.25
2022-07-25T11:06:41.966Z,75502.16
2022-07-25T11:09:21.575Z,75495.88
2022-07-25T11:11:53.298Z,75475.00
2022-07-25T11:14:20.247Z,75468.72
2022-07-25T11:16:49.964Z,75479.19
2022-07-25T11:19:22.722Z,75491.72
2022-07-25T11:21:52.503Z,75489.63
2022-07-25T11:24:19.379Z,75489.63
2022-07-25T11:26:51.427Z,75470.81
2022-07-25T11:29:22.460Z,75470.81
2022-07-25T11:31:56.629Z,75470.81
2022-07-25T11:34:28.545Z,75479.19
2022-07-25T11:36:57.388Z,75491.72
2022-07-25T11:39:28.473Z,75502.16
2022-07-25T11:42:16.527Z,75500.06
2022-07-25T11:44:47.977Z,75497.97
2022-07-25T11:47:33.251Z,75504.25
2022-07-25T11:50:04.492Z,75518.88
2022-07-25T11:52:34.168Z,75516.78
2022-07-25T11:55:09.346Z,75520.97
2022-07-25T11:57:41.602Z,75516.78
2022-07-25T12:00:21.285Z,75531.41
2022-07-25T12:02:49.740Z,75535.59
2022-07-25T12:05:19.496Z,75541.84
2022-07-25T12:07:48.699Z,75543.94
2022-07-25T12:10:17.602Z,75554.38
2022-07-25T12:12:55.768Z,75562.75
2022-07-25T12:15:24.917Z,75571.09
2022-07-25T12:17:52.894Z,75575.28
2022-07-25T12:20:28.046Z,75564.84
2022-07-25T12:23:05.113Z,75571.09
2022-07-25T12:25:32.731Z,75573.19
2022-07-25T12:28:00.420Z,75566.91
2022-07-25T12:30:30.612Z,75554.38
2022-07-25T12:32:58.599Z,75527.22
2022-07-25T12:35:25.332Z,75491.72
2022-07-25T12:37:52.348Z,75454.09
2022-07-25T12:40:19.213Z,75437.41
2022-07-25T12:42:46.510Z,75420.69
2022-07-25T12:45:14.948Z,75403.97
2022-07-25T12:47:43.501Z,75412.31
2022-07-25T12:50:10.144Z,75426.94
2022-07-25T12:52:38.341Z,75414.41
2022-07-25T12:55:10.250Z,75408.16
2022-07-25T12:57:37.045Z,75393.53
2022-07-25T13:00:09.226Z,75366.38
2022-07-25T13:02:36.606Z,75337.13
2022-07-25T13:05:03.454Z,75349.66
2022-07-25T13:07:30.149Z,75383.06
2022-07-25T13:09:56.784Z,75397.69
2022-07-25T13:12:24.254Z,75368.44
2022-07-25T13:14:51.389Z,75366.38
2022-07-25T13:17:19.689Z,75351.75
2022-07-25T13:19:48.005Z,75358.00
2022-07-25T13:22:15.015Z,75381.00
2022-07-25T13:24:41.576Z,75389.34
2022-07-25T13:27:08.557Z,75399.78
2022-07-25T13:29:35.824Z,75376.81
2022-07-25T13:32:02.644Z,75374.72
2022-07-25T13:34:29.635Z,75389.34
2022-07-25T13:36:56.177Z,75408.16
2022-07-25T13:39:22.808Z,75431.13
2022-07-25T13:41:49.884Z,75437.41
2022-07-25T13:44:16.569Z,75456.19
2022-07-25T13:46:46.088Z,75464.56
2022-07-25T13:49:13.165Z,75464.56
2022-07-25T13:51:39.752Z,75456.19
2022-07-25T13:54:06.560Z,75454.09
2022-07-25T13:56:33.502Z,75452.00
2022-07-25T13:59:00.164Z,75443.66
2022-07-25T14:01:28.737Z,75435.31
2022-07-25T14:03:55.603Z,75445.75
2022-07-25T14:06:22.244Z,75441.56
2022-07-25T14:08:48.856Z,75406.06
2022-07-25T14:11:15.408Z,75406.06
2022-07-25T14:13:43.544Z,75393.53
2022-07-25T14:16:09.937Z,75410.22
2022-07-25T14:18:36.674Z,75418.59
2022-07-25T14:21:03.497Z,75435.31
2022-07-25T14:23:30.552Z,75437.41
2022-07-25T14:25:58.583Z,75479.19
2022-07-25T14:28:25.263Z,75479.19
2022-07-25T14:30:52.363Z,75506.34
2022-07-25T14:33:18.964Z,75520.97
2022-07-25T14:35:45.472Z,75535.59
2022-07-25T14:38:12.002Z,75516.78
2022-07-25T14:40:38.663Z,75523.03
2022-07-25T14:43:05.368Z,75537.66
2022-07-25T14:45:32.035Z,75541.84
2022-07-25T14:47:59.191Z,75564.84
2022-07-25T14:50:27.554Z,75589.91
2022-07-25T14:52:54.483Z,75585.72
2022-07-25T14:55:22.249Z,75585.72
2022-07-25T14:57:49.019Z,75617.06
2022-07-25T15:00:15.784Z,75621.25
2022-07-25T15:02:43.024Z,75629.59
2022-07-25T15:05:09.848Z,75612.88
2022-07-25T15:07:37.541Z,75610.78
2022-07-25T15:10:04.451Z,75619.16
2022-07-25T15:12:31.538Z,75631.69
2022-07-25T15:14:58.201Z,75642.13
2022-07-25T15:17:24.785Z,75654.66
2022-07-25T15:19:51.447Z,75658.84
2022-07-25T15:22:18.037Z,75683.91
2022-07-25T15:25:17.204Z,75702.72
2022-07-25T15:27:31.887Z,75721.53
2022-07-25T15:29:58.539Z,75725.69
2022-07-25T15:32:25.205Z,75721.53
2022-07-25T15:34:51.831Z,75723.59
2022-07-25T15:37:18.436Z,75717.34
2022-07-25T15:39:45.501Z,75711.06
2022-07-25T15:42:12.247Z,75721.53
2022-07-25T15:44:38.835Z,75729.88
2022-07-25T15:47:08.977Z,75738.22
2022-07-25T15:49:36.959Z,75746.59
2022-07-25T15:52:03.732Z,75757.03
2022-07-25T15:54:30.447Z,75767.47
2022-07-25T15:56:57.106Z,75775.84
2022-07-25T15:59:24.674Z,75775.84
2022-07-25T16:01:51.173Z,75780.03
2022-07-25T16:04:17.853Z,75767.47
2022-07-25T16:06:44.560Z,75765.41
2022-07-25T16:09:12.574Z,75782.09
2022-07-25T16:11:39.223Z,75780.03
2022-07-25T16:14:07.255Z,75784.19
2022-07-25T16:16:33.924Z,75784.19
2022-07-25T16:19:00.633Z,75794.66
2022-07-25T16:21:27.255Z,75800.91
2022-07-25T16:23:54.103Z,75792.56
2022-07-25T16:26:20.704Z,75811.34
2022-07-25T16:28:47.687Z,75832.25
2022-07-25T16:31:14.486Z,75832.25
2022-07-25T16:33:41.072Z,75863.59
2022-07-25T16:36:08.202Z,75888.66
2022-07-25T16:38:34.925Z,75905.38
2022-07-25T16:41:01.567Z,75930.44
2022-07-25T16:43:28.195Z,75945.06
2022-07-25T16:45:54.801Z,75959.69
2022-07-25T16:48:21.778Z,75976.41
2022-07-25T16:50:48.364Z,75963.88
2022-07-25T16:53:14.976Z,75986.88
2022-07-25T16:55:41.585Z,75991.03
2022-07-25T16:58:08.264Z,76009.84
2022-07-25T17:00:34.855Z,76022.38
2022-07-25T17:03:01.407Z,76028.66
2022-07-25T17:05:28.239Z,76049.53
2022-07-25T17:07:59.445Z,76057.91
2022-07-25T17:10:27.474Z,76068.34
2022-07-25T17:12:54.510Z,76068.34
2022-07-25T17:15:21.197Z,76093.44
2022-07-25T17:17:47.815Z,76099.69
2022-07-25T17:20:14.849Z,76105.97
2022-07-25T17:22:41.514Z,76120.59
2022-07-25T17:25:08.414Z,76131.03
2022-07-25T17:27:35.180Z,76124.75
2022-07-25T17:30:02.239Z,76141.47
2022-07-25T17:32:30.228Z,76145.66
2022-07-25T17:34:57.579Z,76139.38
2022-07-25T17:37:24.422Z,76147.75
2022-07-25T17:39:51.200Z,76166.56
2022-07-25T17:42:22.305Z,76166.56
2022-07-25T17:44:52.624Z,76170.72
2022-07-25T17:47:19.563Z,76168.66
2022-07-25T17:49:46.264Z,76174.91
2022-07-25T17:52:12.848Z,76162.38
2022-07-25T17:54:42.860Z,76160.28
2022-07-25T17:57:10.225Z,76160.28
2022-07-25T17:59:36.835Z,76177.00
2022-07-25T18:02:03.668Z,76174.91
2022-07-25T18:04:30.768Z,76179.09
2022-07-25T18:06:57.307Z,76193.72
2022-07-25T18:09:24.327Z,76204.16
2022-07-25T18:11:51.149Z,76218.78
2022-07-25T18:14:17.786Z,76229.25
2022-07-25T18:16:45.599Z,76231.34
2022-07-25T18:19:12.809Z,76222.97
2022-07-25T18:21:39.591Z,76227.16
2022-07-25T18:24:07.055Z,76231.34
2022-07-25T18:26:34.762Z,76231.34
2022-07-25T18:29:01.311Z,76254.31
2022-07-25T18:31:28.164Z,76260.59
2022-07-25T18:33:55.158Z,76260.59
2022-07-25T18:36:21.845Z,76264.75
2022-07-25T18:38:48.653Z,76273.13
2022-07-25T18:41:31.012Z,76287.75
2022-07-25T18:43:57.731Z,76291.94
2022-07-25T18:46:24.496Z,76291.94
2022-07-25T18:48:52.095Z,76294.00
2022-07-25T18:51:20.475Z,76302.38
2022-07-25T18:53:48.522Z,76308.63
2022-07-25T18:56:16.236Z,76323.28
2022-07-25T18:58:43.316Z,76325.34
2022-07-25T19:01:10.327Z,76335.81
2022-07-25T19:03:37.731Z,76342.06
2022-07-25T19:06:05.160Z,76344.16
2022-07-25T19:08:32.694Z,76342.06
2022-07-25T19:10:59.409Z,76356.69
2022-07-25T19:13:48.927Z,76358.78
2022-07-25T19:16:15.281Z,76362.97
2022-07-25T19:18:43.179Z,76369.25
2022-07-25T19:21:09.735Z,76371.31
2022-07-25T19:23:36.292Z,76388.03
2022-07-25T19:26:03.049Z,76394.31
2022-07-25T19:28:29.683Z,76402.66
2022-07-25T19:30:56.852Z,76396.41
2022-07-25T19:33:24.345Z,76400.59
2022-07-25T19:35:51.235Z,76404.75
2022-07-25T19:38:19.147Z,76419.38
2022-07-25T19:40:46.991Z,76427.75
2022-07-25T19:43:13.626Z,76438.19
2022-07-25T19:45:40.306Z,76442.38
2022-07-25T19:48:07.127Z,76450.72
2022-07-25T19:50:33.939Z,76452.81
2022-07-25T19:53:01.363Z,76442.38
2022-07-25T19:55:28.678Z,76454.91
2022-07-25T19:57:55.358Z,76471.63
2022-07-25T20:00:22.220Z,76480.00
2022-07-25T20:02:48.841Z,76475.81
2022-07-25T20:05:17.232Z,76486.25
2022-07-25T20:07:43.883Z,76494.63
2022-07-25T20:10:11.048Z,76492.53
2022-07-25T20:12:38.249Z,76502.97
2022-07-25T20:15:05.548Z,76498.78
2022-07-25T20:17:32.072Z,76500.88
2022-07-25T20:19:58.792Z,76500.88
2022-07-25T20:22:26.233Z,76496.72
2022-07-25T20:24:52.902Z,76502.97
2022-07-25T20:27:19.458Z,76509.25
2022-07-25T20:29:46.882Z,76507.16
2022-07-25T20:32:13.508Z,76515.50
2022-07-25T20:34:40.063Z,76519.69
2022-07-25T20:37:06.693Z,76519.69
2022-07-25T20:39:33.200Z,76542.69
2022-07-25T20:42:01.378Z,76538.50
2022-07-25T20:44:28.275Z,76557.31
2022-07-25T20:46:54.941Z,76569.84
2022-07-25T20:49:21.675Z,76569.84
2022-07-25T20:51:54.165Z,76569.84
2022-07-25T20:54:21.254Z,76569.84
2022-07-25T20:56:47.916Z,76571.94
2022-07-25T20:59:14.509Z,76580.28
2022-07-25T21:01:41.666Z,76603.28
2022-07-25T21:04:08.537Z,76611.63
2022-07-25T21:06:35.085Z,76609.56
2022-07-25T21:09:04.420Z,76628.34
2022-07-25T21:11:31.039Z,76630.44
2022-07-25T21:13:57.658Z,76634.63
2022-07-25T21:16:27.241Z,76647.16
2022-07-25T21:18:56.020Z,76649.25
2022-07-25T21:21:23.782Z,76651.34
2022-07-25T21:23:51.051Z,76655.53
2022-07-25T21:26:18.201Z,76668.06
2022-07-25T21:28:44.947Z,76674.34
2022-07-25T21:31:12.726Z,76676.41
2022-07-25T21:33:39.558Z,76691.06
2022-07-25T21:36:06.451Z,76695.22
2022-07-25T21:38:34.925Z,76695.22
2022-07-25T21:41:01.812Z,76707.75
2022-07-25T21:43:28.489Z,76720.31
2022-07-25T21:45:55.222Z,76718.22
2022-07-25T21:48:43.057Z,76726.56
2022-07-25T21:51:18.789Z,76739.13
2022-07-25T21:53:47.682Z,76747.47
2022-07-25T21:56:15.557Z,76753.75
2022-07-25T21:58:42.175Z,76762.09
2022-07-25T22:01:08.844Z,76762.09
2022-07-25T22:03:35.437Z,76774.63
2022-07-25T22:06:02.122Z,76776.72
2022-07-25T22:08:28.762Z,76776.72
2022-07-25T22:10:55.480Z,76791.34
2022-07-25T22:13:22.065Z,76791.34
2022-07-25T22:15:48.835Z,76808.06
2022-07-25T22:18:15.394Z,76814.34
2022-07-25T22:20:43.043Z,76816.44
2022-07-25T22:23:09.590Z,76822.69
2022-07-25T22:25:36.195Z,76822.69
2022-07-25T22:28:02.836Z,76816.44
2022-07-25T22:30:29.346Z,76822.69
2022-07-25T22:32:55.932Z,76824.78
2022-07-25T22:35:22.549Z,76820.63
2022-07-25T22:37:49.203Z,76824.78
2022-07-25T22:40:15.951Z,76822.69
2022-07-25T22:42:42.688Z,76824.78
2022-07-25T22:45:09.833Z,76831.06
2022-07-25T22:47:36.507Z,76826.88
2022-07-25T22:50:04.246Z,76833.16
2022-07-25T22:52:31.033Z,76833.16
2022-07-25T22:54:57.626Z,76835.25
2022-07-25T22:57:24.224Z,76835.25
2022-07-25T22:59:50.966Z,76841.50
2022-07-25T23:02:17.527Z,76839.41
2022-07-25T23:04:44.105Z,76845.69
2022-07-25T23:07:10.760Z,76854.06
2022-07-25T23:09:37.297Z,76847.78
2022-07-25T23:12:04.888Z,76847.78
2022-07-25T23:14:31.439Z,76856.13
2022-07-25T23:17:16.261Z,76847.78
2022-07-25T23:19:43.704Z,76858.22
2022-07-25T23:22:10.307Z,76843.59
2022-07-25T23:24:38.107Z,76849.88
2022-07-25T23:27:05.086Z,76862.41
2022-07-25T23:29:31.828Z,76862.41
2022-07-25T23:31:58.460Z,76854.06
2022-07-25T23:34:25.084Z,76856.13
2022-07-25T23:36:51.952Z,76854.06
2022-07-25T23:39:18.566Z,76864.50
2022-07-25T23:41:45.185Z,76858.22
2022-07-25T23:44:11.783Z,76862.41
2022-07-25T23:46:38.598Z,76862.41
2022-07-25T23:49:06.530Z,76854.06
2022-07-25T23:51:33.320Z,76862.41
2022-07-25T23:54:00.044Z,76868.69
2022-07-25T23:56:26.722Z,76868.69
2022-07-25T23:58:54.353Z,76860.31
